Time;durP1;ratioP1;P1;durP2;ratioP2;P2;SDS_P1;SDS_P2;PMS_P1;PMS_P2;Temp;Humidity;BMP_temperature;BMP_pressure;BME280_temperature;BME280_humidity;BME280_pressure;Samples;Min_cycle;Max_cycle;Signal;HPM_P1;HPM_P2
2022/12/14 00:03:42;;;;;;;;;;;;;;;-3.65;92.05176;100746.6;;;;-74
2022/12/14 00:08:42;;;;;;;;;;;;;;;-3.67;91.97363;100743.4;;;;-75
2022/12/14 00:13:42;;;;;;;;;;;;;;;-3.76;92.04785;100734.1;;;;-75
2022/12/14 00:18:43;;;;;;;;;;;;;;;-3.78;91.97949;100739.6;;;;-75
2022/12/14 00:23:42;;;;;;;;;;;;;;;-3.87;91.94043;100740.4;;;;-75
2022/12/14 00:28:18;;;;;;;12.7;5.7;;;;;;;;;;;;;-76
2022/12/14 00:28:42;;;;;;;;;;;;;;;-3.93;91.98926;100730.4;;;;-74
2022/12/14 00:33:41;;;;;;;;;;;;;;;-4.01;91.8877;100729.3;;;;-73
2022/12/14 00:38:42;;;;;;;;;;;;;;;-4.06;91.80371;100730.8;;;;-74
2022/12/14 00:43:42;;;;;;;;;;;;;;;-4.13;91.71289;100720.4;;;;-74
2022/12/14 00:48:41;;;;;;;;;;;;;;;-4.19;91.74219;100713.8;;;;-74
2022/12/14 00:53:41;;;;;;;;;;;;;;;-4.25;91.79395;100703.9;;;;-74
2022/12/14 00:58:17;;;;;;;10.8;4.5;;;;;;;;;;;;;-74
2022/12/14 00:58:41;;;;;;;;;;;;;;;-4.28;91.46875;100699.6;;;;-74
2022/12/14 01:03:41;;;;;;;;;;;;;;;-4.31;91.5459;100692.4;;;;-74
2022/12/14 01:08:41;;;;;;;;;;;;;;;-4.35;91.36719;100681.7;;;;-74
2022/12/14 01:13:42;;;;;;;;;;;;;;;-4.4;91.4834;100674.5;;;;-74
2022/12/14 01:18:42;;;;;;;;;;;;;;;-4.44;91.39063;100670.3;;;;-75
2022/12/14 01:23:42;;;;;;;;;;;;;;;-4.49;91.24023;100667;;;;-74
2022/12/14 01:28:14;;;;;;;9.4;4.5;;;;;;;;;;;;;-74
2022/12/14 01:28:41;;;;;;;;;;;;;;;-4.52;91.29883;100671.1;;;;-74
2022/12/14 01:33:41;;;;;;;;;;;;;;;-4.52;91.3623;100668.6;;;;-74
2022/12/14 01:38:41;;;;;;;;;;;;;;;-4.53;91.23242;100662.8;;;;-73
2022/12/14 01:43:52;;;;;;;;;;;;;;;-4.58;91.21191;100662.5;;;;-73
2022/12/14 01:48:41;;;;;;;;;;;;;;;-4.58;91.34863;100660;;;;-74
2022/12/14 01:53:41;;;;;;;;;;;;;;;-4.62;91.20215;100655.6;;;;-73
2022/12/14 01:58:13;;;;;;;13;4.8;;;;;;;;;;;;;-74
2022/12/14 01:58:41;;;;;;;;;;;;;;;-4.66;91.16016;100658;;;;-74
2022/12/14 02:03:44;;;;;;;;;;;;;;;-4.65;91.1543;100657;;;;-74
2022/12/14 02:08:42;;;;;;;;;;;;;;;-4.69;91.09082;100658.5;;;;-74
2022/12/14 02:13:44;;;;;;;;;;;;;;;-4.73;91.14648;100658.1;;;;-74
2022/12/14 02:18:41;;;;;;;;;;;;;;;-4.72;91.02148;100654.1;;;;-74
2022/12/14 02:23:50;;;;;;;;;;;;;;;-4.74;91.00684;100647;;;;-73
2022/12/14 02:28:23;;;;;;;10.9;4.1;;;;;;;;;;;;;-73
2022/12/14 02:28:52;;;;;;;;;;;;;;;-4.77;91.07324;100641.4;;;;-73
2022/12/14 02:33:47;;;;;;;;;;;;;;;-4.78;90.92383;100633.9;;;;-73
2022/12/14 02:38:48;;;;;;;;;;;;;;;-4.8;91.03711;100629.2;;;;-74
2022/12/14 02:43:47;;;;;;;;;;;;;;;-4.81;91.05469;100635.4;;;;-73
2022/12/14 02:48:43;;;;;;;;;;;;;;;-4.79;90.99512;100627.6;;;;-74
2022/12/14 02:53:45;;;;;;;;;;;;;;;-4.83;90.96582;100624;;;;-73
2022/12/14 02:58:13;;;;;;;9;3.9;;;;;;;;;;;;;-74
2022/12/14 02:58:45;;;;;;;;;;;;;;;-4.83;90.89941;100626;;;;-74
2022/12/14 03:03:41;;;;;;;;;;;;;;;-4.86;90.93848;100611.9;;;;-73
2022/12/14 03:08:41;;;;;;;;;;;;;;;-4.87;90.96875;100605.7;;;;-73
2022/12/14 03:13:43;;;;;;;;;;;;;;;-4.89;90.90918;100593.9;;;;-74
2022/12/14 03:18:44;;;;;;;;;;;;;;;-4.9;90.84375;100589.6;;;;-74
2022/12/14 03:23:45;;;;;;;;;;;;;;;-4.91;90.80957;100591.9;;;;-74
2022/12/14 03:28:09;;;;;;;10;4.4;;;;;;;;;;;;;-74
2022/12/14 03:28:45;;;;;;;;;;;;;;;-4.91;90.76758;100590.1;;;;-74
2022/12/14 03:33:44;;;;;;;;;;;;;;;-4.97;90.74512;100586.7;;;;-74
2022/12/14 03:38:43;;;;;;;;;;;;;;;-5;90.6748;100580.8;;;;-74
2022/12/14 03:43:48;;;;;;;;;;;;;;;-5.05;90.75879;100579.5;;;;-74
2022/12/14 03:48:45;;;;;;;;;;;;;;;-5.08;90.73242;100570.4;;;;-74
2022/12/14 03:53:44;;;;;;;;;;;;;;;-5.1;90.62012;100571.9;;;;-74
2022/12/14 03:58:21;;;;;;;8.6;4.2;;;;;;;;;;;;;-74
2022/12/14 03:58:49;;;;;;;;;;;;;;;-5.12;90.60547;100565.9;;;;-74
2022/12/14 04:03:48;;;;;;;;;;;;;;;-5.17;90.54199;100567;;;;-74
2022/12/14 04:08:43;;;;;;;;;;;;;;;-5.21;90.53418;100560;;;;-73
2022/12/14 04:18:59;;;;;;;;;;;;;;;-5.32;90.48828;100549.8;;;;-73
2022/12/14 04:28:07;;;;;;;8.7;4;;;;;;;;;;;;;-74
2022/12/14 04:33:51;;;;;;;;;;;;;;;-5.48;90.34668;100553.5;;;;-74
2022/12/14 04:38:42;;;;;;;;;;;;;;;-5.5;90.50195;100549.5;;;;-74
2022/12/14 04:43:45;;;;;;;;;;;;;;;-5.59;90.08105;100549;;;;-73
2022/12/14 04:48:43;;;;;;;;;;;;;;;-5.63;90.13477;100546;;;;-74
2022/12/14 04:54:00;;;;;;;;;;;;;;;-5.65;89.97168;100542.8;;;;-72
2022/12/14 04:58:03;;;;;;;6.9;3.2;;;;;;;;;;;;;-74
2022/12/14 04:58:27;;;;;;;;;;;;;;;-5.73;89.90137;100539.2;;;;-74
2022/12/14 05:03:29;;;;;;;;;;;;;;;-5.79;89.86816;100531.1;;;;-74
2022/12/14 05:08:29;;;;;;;;;;;;;;;-5.83;89.76172;100528.6;;;;-75
2022/12/14 05:13:28;;;;;;;;;;;;;;;-5.81;89.63086;100529.3;;;;-74
2022/12/14 05:18:25;;;;;;;;;;;;;;;-5.88;89.59473;100524.3;;;;-74
2022/12/14 05:23:24;;;;;;;;;;;;;;;-5.94;89.69727;100516;;;;-74
2022/12/14 05:28:00;;;;;;;6.2;2.7;;;;;;;;;;;;;-74
2022/12/14 05:28:24;;;;;;;;;;;;;;;-5.99;89.47559;100515.3;;;;-74
2022/12/14 05:33:25;;;;;;;;;;;;;;;-6.01;89.49316;100519;;;;-73
2022/12/14 05:38:24;;;;;;;;;;;;;;;-6.16;89.36426;100529.8;;;;-75
2022/12/14 05:43:24;;;;;;;;;;;;;;;-6.14;89.58008;100529.1;;;;-74
2022/12/14 05:48:24;;;;;;;;;;;;;;;-6.22;89.59668;100527.3;;;;-73
2022/12/14 05:53:24;;;;;;;;;;;;;;;-6.29;89.37988;100521.5;;;;-74
2022/12/14 05:57:58;;;;;;;9.3;3.7;;;;;;;;;;;;;-75
2022/12/14 05:58:24;;;;;;;;;;;;;;;-6.36;89.17383;100511;;;;-74
2022/12/14 06:03:24;;;;;;;;;;;;;;;-6.45;89.17578;100506.9;;;;-74
2022/12/14 06:08:24;;;;;;;;;;;;;;;-6.46;89.13086;100502.6;;;;-73
2022/12/14 06:13:24;;;;;;;;;;;;;;;-6.53;89.19043;100512;;;;-73
2022/12/14 06:18:24;;;;;;;;;;;;;;;-6.57;89.06738;100519.3;;;;-74
2022/12/14 06:23:24;;;;;;;;;;;;;;;-6.65;88.96191;100515.1;;;;-74
2022/12/14 06:27:59;;;;;;;5.9;2.8;;;;;;;;;;;;;-74
2022/12/14 06:28:24;;;;;;;;;;;;;;;-6.75;89.00391;100509.6;;;;-74
2022/12/14 06:33:24;;;;;;;;;;;;;;;-6.79;88.70215;100510.4;;;;-74
2022/12/14 06:38:24;;;;;;;;;;;;;;;-6.82;88.75977;100511;;;;-74
2022/12/14 06:43:27;;;;;;;;;;;;;;;-6.88;88.4375;100511.4;;;;-74
2022/12/14 06:48:24;;;;;;;;;;;;;;;-6.92;88.38672;100514.1;;;;-73
2022/12/14 06:53:24;;;;;;;;;;;;;;;-7;88.50879;100512.3;;;;-74
2022/12/14 06:57:54;;;;;;;5.1;2.8;;;;;;;;;;;;;-73
2022/12/14 06:58:24;;;;;;;;;;;;;;;-6.98;88.42676;100509.3;;;;-73
2022/12/14 07:03:24;;;;;;;;;;;;;;;-7.06;88.24219;100516.6;;;;-74
2022/12/14 07:08:24;;;;;;;;;;;;;;;-7.1;88.25391;100521;;;;-74
2022/12/14 07:13:24;;;;;;;;;;;;;;;-7.17;88.16602;100519.2;;;;-74
2022/12/14 07:18:24;;;;;;;;;;;;;;;-7.21;88.00781;100515.5;;;;-73
2022/12/14 07:23:24;;;;;;;;;;;;;;;-7.25;87.97949;100512.4;;;;-73
2022/12/14 07:27:51;;;;;;;3.9;2.4;;;;;;;;;;;;;-73
2022/12/14 07:28:24;;;;;;;;;;;;;;;-7.31;87.85156;100512;;;;-73
2022/12/14 07:33:24;;;;;;;;;;;;;;;-7.32;87.93262;100512.6;;;;-74
2022/12/14 07:38:24;;;;;;;;;;;;;;;-7.37;88.06055;100516.6;;;;-74
2022/12/14 07:43:24;;;;;;;;;;;;;;;-7.32;87.73145;100508;;;;-73
2022/12/14 07:48:24;;;;;;;;;;;;;;;-7.38;87.73047;100506.4;;;;-73
2022/12/14 07:53:24;;;;;;;;;;;;;;;-7.43;87.81445;100510.6;;;;-73
2022/12/14 07:57:49;;;;;;;4.1;2.4;;;;;;;;;;;;;-73
2022/12/14 07:58:24;;;;;;;;;;;;;;;-7.36;87.52246;100515.1;;;;-74
2022/12/14 08:03:24;;;;;;;;;;;;;;;-7.47;87.60352;100518.1;;;;-73
2022/12/14 08:08:24;;;;;;;;;;;;;;;-7.47;87.56152;100510.9;;;;-73
2022/12/14 08:13:24;;;;;;;;;;;;;;;-7.48;87.44531;100508.5;;;;-74
2022/12/14 08:18:25;;;;;;;;;;;;;;;-7.51;87.43945;100510.5;;;;-73
2022/12/14 08:23:24;;;;;;;;;;;;;;;-7.44;87.31543;100518.2;;;;-74
2022/12/14 08:27:47;;;;;;;5.1;2.1;;;;;;;;;;;;;-74
2022/12/14 08:28:24;;;;;;;;;;;;;;;-7.43;87.23242;100526.9;;;;-74
2022/12/14 08:33:24;;;;;;;;;;;;;;;-7.5;87.22754;100533.3;;;;-73
2022/12/14 08:38:24;;;;;;;;;;;;;;;-7.43;87.12695;100537.4;;;;-74
2022/12/14 08:43:24;;;;;;;;;;;;;;;-7.41;86.91016;100539.6;;;;-74
2022/12/14 08:48:24;;;;;;;;;;;;;;;-7.37;86.94922;100540.2;;;;-74
2022/12/14 08:53:24;;;;;;;;;;;;;;;-7.33;87.08398;100542;;;;-74
2022/12/14 08:57:45;;;;;;;4.2;2.5;;;;;;;;;;;;;-74
2022/12/14 08:58:25;;;;;;;;;;;;;;;-7.22;86.83105;100546;;;;-75
2022/12/14 09:03:26;;;;;;;;;;;;;;;-7.16;87.06641;100539.6;;;;-75
2022/12/14 09:08:24;;;;;;;;;;;;;;;-7.05;86.86719;100547.7;;;;-75
2022/12/14 09:13:24;;;;;;;;;;;;;;;-6.84;86.62402;100554.8;;;;-74
2022/12/14 09:18:24;;;;;;;;;;;;;;;-6.61;86.22559;100551;;;;-75
2022/12/14 09:23:25;;;;;;;;;;;;;;;-6.4;86.49316;100549;;;;-75
2022/12/14 09:27:42;;;;;;;6.8;2.9;;;;;;;;;;;;;-74
2022/12/14 09:28:24;;;;;;;;;;;;;;;-6.33;86.1875;100545.1;;;;-75
2022/12/14 09:33:24;;;;;;;;;;;;;;;-6.22;86.45605;100539;;;;-74
2022/12/14 09:38:24;;;;;;;;;;;;;;;-6.03;86.01563;100528.9;;;;-73
2022/12/14 09:43:35;;;;;;;;;;;;;;;-5.81;86.12402;100530.2;;;;-74
2022/12/14 09:48:27;;;;;;;;;;;;;;;-5.37;84.42773;100525.7;;;;-73
2022/12/14 09:53:25;;;;;;;;;;;;;;;-5.26;84.53223;100524.5;;;;-74
2022/12/14 09:57:42;;;;;;;8.3;3.7;;;;;;;;;;;;;-74
2022/12/14 09:58:25;;;;;;;;;;;;;;;-5.16;83.91602;100522.4;;;;-74
2022/12/14 10:03:37;;;;;;;;;;;;;;;-5.15;83.68164;100525.2;;;;-73
2022/12/14 10:08:28;;;;;;;;;;;;;;;-5.23;83.58203;100524.7;;;;-72
2022/12/14 10:13:30;;;;;;;;;;;;;;;-5.16;83.89453;100524;;;;-74
2022/12/14 10:18:32;;;;;;;;;;;;;;;-5.09;84.02637;100527.4;;;;-74
2022/12/14 10:23:26;;;;;;;;;;;;;;;-5.01;83.93359;100522.9;;;;-73
2022/12/14 10:27:39;;;;;;;9.1;4.2;;;;;;;;;;;;;-74
2022/12/14 10:28:29;;;;;;;;;;;;;;;-4.91;83.93457;100522.2;;;;-73
2022/12/14 10:33:26;;;;;;;;;;;;;;;-4.74;83.7959;100521.8;;;;-73
2022/12/14 10:38:28;;;;;;;;;;;;;;;-4.54;83.44141;100525.1;;;;-73
2022/12/14 10:43:33;;;;;;;;;;;;;;;-4.37;83.20898;100524.3;;;;-72
2022/12/14 10:48:42;;;;;;;;;;;;;;;-4.29;83.08398;100525.6;;;;-73
2022/12/14 10:53:28;;;;;;;;;;;;;;;-4.17;83.19434;100515.5;;;;-73
2022/12/14 10:57:37;;;;;;;10.6;4.5;;;;;;;;;;;;;-73
2022/12/14 10:58:24;;;;;;;;;;;;;;;-4.03;83.08398;100513.2;;;;-73
2022/12/14 11:03:24;;;;;;;;;;;;;;;-3.91;83.07422;100508.1;;;;-74
2022/12/14 11:08:35;;;;;;;;;;;;;;;-3.93;83.34863;100513.6;;;;-74
2022/12/14 11:13:24;;;;;;;;;;;;;;;-3.88;83.5918;100514.1;;;;-74
2022/12/14 11:18:30;;;;;;;;;;;;;;;-3.88;83.9873;100512.1;;;;-73
2022/12/14 11:23:27;;;;;;;;;;;;;;;-3.84;84.1875;100509.6;;;;-74
2022/12/14 11:27:36;;;;;;;15.9;6;;;;;;;;;;;;;-75
2022/12/14 11:28:28;;;;;;;;;;;;;;;-3.82;84.44922;100501.6;;;;-73
2022/12/14 11:33:24;;;;;;;;;;;;;;;-3.76;84.54492;100508.4;;;;-72
2022/12/14 11:38:25;;;;;;;;;;;;;;;-3.73;84.73535;100508.2;;;;-72
2022/12/14 11:43:29;;;;;;;;;;;;;;;-3.68;84.68945;100502.9;;;;-74
2022/12/14 11:48:26;;;;;;;;;;;;;;;-3.64;84.76074;100500.1;;;;-74
2022/12/14 11:53:26;;;;;;;;;;;;;;;-3.59;84.97559;100498;;;;-73
2022/12/14 11:57:35;;;;;;;12.5;5.3;;;;;;;;;;;;;-73
2022/12/14 11:58:26;;;;;;;;;;;;;;;-3.55;84.95215;100494.4;;;;-73
2022/12/14 12:03:27;;;;;;;;;;;;;;;-3.53;85.10547;100492.1;;;;-74
2022/12/14 12:08:27;;;;;;;;;;;;;;;-3.48;85.22168;100485.7;;;;-73
2022/12/14 12:13:28;;;;;;;;;;;;;;;-3.44;85.33789;100488.2;;;;-73
2022/12/14 12:18:27;;;;;;;;;;;;;;;-3.38;85.32715;100488.9;;;;-73
2022/12/14 12:23:26;;;;;;;;;;;;;;;-3.36;85.42676;100497.8;;;;-73
2022/12/14 12:27:34;;;;;;;12.8;5.9;;;;;;;;;;;;;-74
2022/12/14 12:28:27;;;;;;;;;;;;;;;-3.35;85.49512;100500.4;;;;-73
2022/12/14 12:33:28;;;;;;;;;;;;;;;-3.31;85.72656;100497.3;;;;-73
2022/12/14 12:38:29;;;;;;;;;;;;;;;-3.29;85.75195;100499.3;;;;-74
2022/12/14 12:43:26;;;;;;;;;;;;;;;-3.26;85.82129;100494;;;;-74
2022/12/14 12:48:25;;;;;;;;;;;;;;;-3.25;86.03711;100495.2;;;;-73
2022/12/14 12:53:29;;;;;;;;;;;;;;;-3.23;86.0752;100489.6;;;;-73
2022/12/14 12:57:33;;;;;;;12.5;5.4;;;;;;;;;;;;;-73
2022/12/14 12:58:25;;;;;;;;;;;;;;;-3.21;86.32422;100482.3;;;;-73
2022/12/14 13:03:28;;;;;;;;;;;;;;;-3.21;86.49609;100487.4;;;;-74
2022/12/14 13:08:28;;;;;;;;;;;;;;;-3.19;86.50977;100489.3;;;;-73
2022/12/14 13:13:27;;;;;;;;;;;;;;;-3.17;86.57813;100494.1;;;;-73
2022/12/14 13:18:27;;;;;;;;;;;;;;;-3.14;86.64941;100495;;;;-74
2022/12/14 13:23:26;;;;;;;;;;;;;;;-3.12;86.70703;100493.9;;;;-74
2022/12/14 13:27:44;;;;;;;14.8;5.7;;;;;;;;;;;;;-74
2022/12/14 13:28:37;;;;;;;;;;;;;;;-3.1;86.7959;100493.4;;;;-74
2022/12/14 13:33:36;;;;;;;;;;;;;;;-3.11;86.87988;100490.7;;;;-74
2022/12/14 13:38:41;;;;;;;;;;;;;;;-3.11;86.91211;100491.7;;;;-74
2022/12/14 13:43:35;;;;;;;;;;;;;;;-3.12;87.02734;100488.5;;;;-74
2022/12/14 13:48:26;;;;;;;;;;;;;;;-3.13;87.10938;100489;;;;-74
2022/12/14 13:53:27;;;;;;;;;;;;;;;-3.16;87.15918;100486.9;;;;-73
2022/12/14 13:57:28;;;;;;;13.4;5.1;;;;;;;;;;;;;-74
2022/12/14 13:58:28;;;;;;;;;;;;;;;-3.19;87.25;100481.6;;;;-74
2022/12/14 14:03:35;;;;;;;;;;;;;;;-3.2;87.33105;100490.4;;;;-74
2022/12/14 14:08:34;;;;;;;;;;;;;;;-3.23;87.47363;100501.6;;;;-74
2022/12/14 14:13:36;;;;;;;;;;;;;;;-3.26;87.42676;100500.4;;;;-75
2022/12/14 14:18:26;;;;;;;;;;;;;;;-3.3;87.49414;100500.5;;;;-73
2022/12/14 14:23:37;;;;;;;;;;;;;;;-3.34;87.55957;100501.5;;;;-74
2022/12/14 14:27:28;;;;;;;10.5;4.8;;;;;;;;;;;;;-74
2022/12/14 14:28:29;;;;;;;;;;;;;;;-3.37;87.55176;100502.4;;;;-74
2022/12/14 14:33:35;;;;;;;;;;;;;;;-3.41;87.57715;100505;;;;-73
2022/12/14 14:38:30;;;;;;;;;;;;;;;-3.43;87.63672;100507.4;;;;-75
2022/12/14 14:43:28;;;;;;;;;;;;;;;-3.48;87.69141;100509.8;;;;-74
2022/12/14 14:48:34;;;;;;;;;;;;;;;-3.55;87.73047;100509.9;;;;-74
2022/12/14 14:53:34;;;;;;;;;;;;;;;-3.83;89.15625;100514.5;;;;-74
2022/12/14 14:57:51;;;;;;;9.2;4.3;;;;;;;;;;;;;-74
2022/12/14 14:58:29;;;;;;;;;;;;;;;-3.84;88.99316;100522.5;;;;-75
2022/12/14 15:03:28;;;;;;;;;;;;;;;-3.96;89.39258;100524.2;;;;-74
2022/12/14 15:08:29;;;;;;;;;;;;;;;-4;89.45117;100535.6;;;;-75
2022/12/14 15:13:26;;;;;;;;;;;;;;;-4.02;89.32813;100532.9;;;;-74
2022/12/14 15:18:30;;;;;;;;;;;;;;;-4.06;89;100534.4;;;;-74
2022/12/14 15:23:24;;;;;;;;;;;;;;;-4.18;89.13379;100542.2;;;;-73
2022/12/14 15:27:26;;;;;;;8.5;4.4;;;;;;;;;;;;;-74
2022/12/14 15:28:26;;;;;;;;;;;;;;;-4.23;88.97461;100538.8;;;;-74
2022/12/14 15:33:27;;;;;;;;;;;;;;;-4.34;89.04785;100534.1;;;;-74
2022/12/14 15:38:27;;;;;;;;;;;;;;;-4.37;88.99902;100533.5;;;;-74
2022/12/14 15:43:25;;;;;;;;;;;;;;;-4.44;88.99414;100535.3;;;;-73
2022/12/14 15:48:29;;;;;;;;;;;;;;;-4.54;89.1123;100544.1;;;;-73
2022/12/14 15:53:29;;;;;;;;;;;;;;;-4.57;88.95703;100541.4;;;;-74
2022/12/14 15:57:23;;;;;;;7.4;3.5;;;;;;;;;;;;;-74
2022/12/14 15:58:28;;;;;;;;;;;;;;;-4.63;88.81543;100540.2;;;;-74
2022/12/14 16:03:28;;;;;;;;;;;;;;;-4.78;89.02832;100537.3;;;;-74
2022/12/14 16:08:25;;;;;;;;;;;;;;;-4.78;88.88086;100540.5;;;;-74
2022/12/14 16:13:26;;;;;;;;;;;;;;;-4.91;88.76758;100549.1;;;;-73
2022/12/14 16:18:24;;;;;;;;;;;;;;;-4.88;88.77246;100548.7;;;;-75
2022/12/14 16:23:32;;;;;;;;;;;;;;;-4.94;88.34668;100550.4;;;;-75
2022/12/14 16:27:23;;;;;;;10;4;;;;;;;;;;;;;-74
2022/12/14 16:28:29;;;;;;;;;;;;;;;-4.93;88.48438;100546.5;;;;-74
2022/12/14 16:33:25;;;;;;;;;;;;;;;-4.86;88.10645;100547.7;;;;-74
2022/12/14 16:38:24;;;;;;;;;;;;;;;-5.07;88.71387;100548.6;;;;-74
2022/12/14 16:43:32;;;;;;;;;;;;;;;-5.12;88.50195;100545.9;;;;-75
2022/12/14 16:48:27;;;;;;;;;;;;;;;-5.15;88.35547;100547.5;;;;-74
2022/12/14 16:53:25;;;;;;;;;;;;;;;-5.19;88.56934;100546.3;;;;-73
2022/12/14 16:57:25;;;;;;;9.8;3.3;;;;;;;;;;;;;-73
2022/12/14 16:58:24;;;;;;;;;;;;;;;-5.2;88.43164;100548.4;;;;-73
2022/12/14 17:03:26;;;;;;;;;;;;;;;-5.2;88.35547;100546.5;;;;-74
2022/12/14 17:08:24;;;;;;;;;;;;;;;-5.26;88.44824;100545.8;;;;-74
2022/12/14 17:13:24;;;;;;;;;;;;;;;-5.22;88.2666;100547.9;;;;-74
2022/12/14 17:18:25;;;;;;;;;;;;;;;-5.22;88.27832;100548.5;;;;-74
2022/12/14 17:23:24;;;;;;;;;;;;;;;-5.27;88.22461;100552.8;;;;-75
2022/12/14 17:27:19;;;;;;;6.8;3.1;;;;;;;;;;;;;-74
2022/12/14 17:28:27;;;;;;;;;;;;;;;-5.27;88.38379;100551.8;;;;-73
2022/12/14 17:33:24;;;;;;;;;;;;;;;-5.33;88.5625;100557.6;;;;-73
2022/12/14 17:38:25;;;;;;;;;;;;;;;-5.27;88.58594;100557.8;;;;-74
2022/12/14 17:43:26;;;;;;;;;;;;;;;-5.24;88.52832;100552.9;;;;-74
2022/12/14 17:48:24;;;;;;;;;;;;;;;-5.27;88.55469;100552.7;;;;-74
2022/12/14 17:53:28;;;;;;;;;;;;;;;-5.21;88.43848;100552.8;;;;-75
2022/12/14 17:57:17;;;;;;;9;3.7;;;;;;;;;;;;;-74
2022/12/14 17:58:24;;;;;;;;;;;;;;;-5.15;88.03711;100553.6;;;;-73
2022/12/14 18:03:24;;;;;;;;;;;;;;;-5.18;88.5625;100563.1;;;;-74
2022/12/14 18:08:25;;;;;;;;;;;;;;;-5.13;88.46387;100561.5;;;;-74
2022/12/14 18:13:25;;;;;;;;;;;;;;;-5.19;88.50586;100559.1;;;;-74
2022/12/14 18:18:27;;;;;;;;;;;;;;;-5.16;88.67285;100552.9;;;;-74
2022/12/14 18:23:24;;;;;;;;;;;;;;;-5.16;88.4502;100557.7;;;;-75
2022/12/14 18:27:14;;;;;;;7.1;3.3;;;;;;;;;;;;;-73
2022/12/14 18:28:24;;;;;;;;;;;;;;;-5.16;88.45996;100564;;;;-73
2022/12/14 18:33:25;;;;;;;;;;;;;;;-5.17;88.77734;100569;;;;-74
2022/12/14 18:38:24;;;;;;;;;;;;;;;-5.1;88.45215;100591;;;;-74
2022/12/14 18:43:25;;;;;;;;;;;;;;;-4.97;88.3916;100587.2;;;;-75
2022/12/14 18:48:24;;;;;;;;;;;;;;;-4.95;88.59766;100585.8;;;;-75
2022/12/14 18:53:25;;;;;;;;;;;;;;;-4.83;88.60352;100589.2;;;;-74
2022/12/14 18:57:13;;;;;;;8.8;3.9;;;;;;;;;;;;;-74
2022/12/14 18:58:25;;;;;;;;;;;;;;;-4.77;88.75488;100595;;;;-73
2022/12/14 19:03:24;;;;;;;;;;;;;;;-4.65;88.84375;100589;;;;-74
2022/12/14 19:08:24;;;;;;;;;;;;;;;-4.49;88.46094;100600.3;;;;-74
2022/12/14 19:13:24;;;;;;;;;;;;;;;-4.5;88.68457;100600.5;;;;-74
2022/12/14 19:18:24;;;;;;;;;;;;;;;-4.52;89.09473;100592.9;;;;-74
2022/12/14 19:23:24;;;;;;;;;;;;;;;-4.5;89.01465;100594.6;;;;-73
2022/12/14 19:27:11;;;;;;;10.1;3.9;;;;;;;;;;;;;-73
2022/12/14 19:28:24;;;;;;;;;;;;;;;-4.51;89.27539;100599.2;;;;-74
2022/12/14 19:33:24;;;;;;;;;;;;;;;-4.48;89.15527;100610.8;;;;-74
2022/12/14 19:38:24;;;;;;;;;;;;;;;-4.49;89.20898;100616;;;;-73
2022/12/14 19:43:24;;;;;;;;;;;;;;;-4.55;89.46094;100614.6;;;;-73
2022/12/14 19:48:24;;;;;;;;;;;;;;;-4.48;89.04004;100605.9;;;;-74
2022/12/14 19:53:24;;;;;;;;;;;;;;;-4.55;89.41016;100615.9;;;;-74
2022/12/14 19:57:08;;;;;;;10.5;3.8;;;;;;;;;;;;;-74
2022/12/14 19:58:24;;;;;;;;;;;;;;;-4.6;89.53516;100622.5;;;;-74
2022/12/14 20:03:24;;;;;;;;;;;;;;;-4.64;89.62305;100624.2;;;;-74
2022/12/14 20:08:24;;;;;;;;;;;;;;;-4.69;89.63281;100619.6;;;;-75
2022/12/14 20:13:25;;;;;;;;;;;;;;;-4.74;89.59082;100626.2;;;;-75
2022/12/14 20:18:24;;;;;;;;;;;;;;;-4.8;89.66504;100628.8;;;;-74
2022/12/14 20:23:24;;;;;;;;;;;;;;;-4.87;89.74512;100641.1;;;;-74
2022/12/14 20:27:06;;;;;;;9.1;3.7;;;;;;;;;;;;;-75
2022/12/14 20:28:24;;;;;;;;;;;;;;;-4.86;89.53223;100640.3;;;;-75
2022/12/14 20:33:24;;;;;;;;;;;;;;;-4.94;89.47461;100642.4;;;;-75
2022/12/14 20:38:24;;;;;;;;;;;;;;;-4.99;89.51758;100644.3;;;;-74
2022/12/14 20:43:24;;;;;;;;;;;;;;;-4.93;89.18945;100650.8;;;;-74
2022/12/14 20:48:24;;;;;;;;;;;;;;;-4.96;89.43848;100654.2;;;;-75
2022/12/14 20:53:24;;;;;;;;;;;;;;;-4.97;89.05176;100655.7;;;;-74
2022/12/14 20:57:05;;;;;;;8.7;3.4;;;;;;;;;;;;;-73
2022/12/14 20:58:24;;;;;;;;;;;;;;;-5.01;89.28027;100666.1;;;;-74
2022/12/14 21:03:24;;;;;;;;;;;;;;;-5.02;89.02051;100673.8;;;;-74
2022/12/14 21:08:24;;;;;;;;;;;;;;;-5.09;89.21777;100679.4;;;;-74
2022/12/14 21:13:24;;;;;;;;;;;;;;;-5.07;89.2666;100686.5;;;;-74
2022/12/14 21:18:24;;;;;;;;;;;;;;;-4.91;88.82031;100701.5;;;;-73
2022/12/14 21:23:24;;;;;;;;;;;;;;;-4.85;88.82129;100710.2;;;;-74
2022/12/14 21:27:03;;;;;;;8.6;3.5;;;;;;;;;;;;;-74
2022/12/14 21:28:24;;;;;;;;;;;;;;;-4.79;89.18555;100695.1;;;;-74
2022/12/14 21:33:24;;;;;;;;;;;;;;;-4.69;89.66504;100685.8;;;;-75
2022/12/14 21:38:24;;;;;;;;;;;;;;;-4.54;89.66602;100673.7;;;;-75
2022/12/14 21:43:24;;;;;;;;;;;;;;;-4.36;89.5957;100671.2;;;;-74
2022/12/14 21:48:24;;;;;;;;;;;;;;;-4.23;89.29395;100667.6;;;;-75
2022/12/14 21:53:24;;;;;;;;;;;;;;;-4.23;89.68652;100670.6;;;;-74
2022/12/14 21:58:24;;;;;;;;;;;;;;;-4.2;89.45996;100678.8;;;;-74
2022/12/14 22:03:24;;;;;;;;;;;;;;;-4.17;89.24414;100682.1;;;;-74
2022/12/14 22:08:27;;;;;;;;;;;;;;;-4.22;89.57324;100697.1;;;;-73
2022/12/14 22:13:24;;;;;;;;;;;;;;;-4.26;89.78906;100706.5;;;;-74
2022/12/14 22:18:24;;;;;;;;;;;;;;;-4.35;90.47266;100705.4;;;;-73
2022/12/14 22:23:24;;;;;;;;;;;;;;;-4.25;90.69727;100706;;;;-74
2022/12/14 22:27:00;;;;;;;5.9;2.6;;;;;;;;;;;;;-74
2022/12/14 22:28:24;;;;;;;;;;;;;;;-4.13;90.01855;100707.2;;;;-74
2022/12/14 22:33:24;;;;;;;;;;;;;;;-4.13;90.30469;100705.2;;;;-75
2022/12/14 22:38:24;;;;;;;;;;;;;;;-4.06;90.04492;100701;;;;-73
2022/12/14 22:43:24;;;;;;;;;;;;;;;-4.08;90.31641;100703.3;;;;-75
2022/12/14 22:48:25;;;;;;;;;;;;;;;-4.09;90.63379;100708;;;;-74
2022/12/14 22:53:24;;;;;;;;;;;;;;;-4.06;90.23535;100706.9;;;;-74
2022/12/14 22:57:01;;;;;;;4.7;2.4;;;;;;;;;;;;;-74
2022/12/14 22:58:25;;;;;;;;;;;;;;;-4.16;90.67383;100706.9;;;;-73
2022/12/14 23:03:26;;;;;;;;;;;;;;;-4.17;90.67188;100704;;;;-74
2022/12/14 23:08:24;;;;;;;;;;;;;;;-4.18;90.69141;100712.8;;;;-74
